Time;durP1;ratioP1;P1;durP2;ratioP2;P2;SDS_P1;SDS_P2;PMS_P1;PMS_P2;Temp;Humidity;BMP_temperature;BMP_pressure;BME280_temperature;BME280_humidity;BME280_pressure;Samples;Min_cycle;Max_cycle;Signal;HPM_P1;HPM_P2
2023/12/31 00:00:35;;;;;;;1.50;1.40;;;10.80;82.30;;;;;;5017194;28;20061;-80
2023/12/31 00:03:01;;;;;;;1.33;1.23;;;10.80;82.30;;;;;;5029829;28;20351;-79
2023/12/31 00:05:27;;;;;;;1.42;1.33;;;10.80;82.30;;;;;;5053325;28;20029;-80
2023/12/31 00:07:53;;;;;;;1.27;1.20;;;10.80;82.30;;;;;;5030021;28;20485;-79
2023/12/31 00:10:18;;;;;;;1.40;1.30;;;10.80;82.30;;;;;;5015621;28;20051;-79
2023/12/31 00:12:44;;;;;;;1.48;1.38;;;10.80;82.30;;;;;;4995496;28;20393;-80
2023/12/31 00:15:10;;;;;;;1.83;1.50;;;10.80;82.30;;;;;;5029954;28;20083;-80
2023/12/31 00:17:37;;;;;;;1.27;1.17;;;10.80;82.40;;;;;;5028936;28;20477;-80
2023/12/31 00:20:03;;;;;;;1.40;1.30;;;10.70;82.30;;;;;;5048068;28;20040;-80
2023/12/31 00:22:29;;;;;;;2.33;1.50;;;10.80;82.30;;;;;;5046715;28;20496;-80
2023/12/31 00:24:55;;;;;;;1.80;1.40;;;10.70;82.30;;;;;;5026740;28;20041;-80
2023/12/31 00:27:21;;;;;;;1.50;1.40;;;10.70;82.30;;;;;;5029420;28;20036;-80
2023/12/31 00:29:48;;;;;;;1.20;1.17;;;10.70;82.40;;;;;;5011937;28;20045;-80
2023/12/31 00:32:15;;;;;;;1.10;1.10;;;10.70;82.40;;;;;;5016019;28;20040;-79
2023/12/31 00:34:41;;;;;;;1.10;1.10;;;10.70;82.40;;;;;;5040684;28;20021;-80
2023/12/31 00:37:07;;;;;;;1.02;1.02;;;10.70;82.40;;;;;;5041826;28;20029;-80
2023/12/31 00:39:32;;;;;;;1.30;1.20;;;10.70;82.40;;;;;;5045802;28;20033;-80
2023/12/31 00:41:58;;;;;;;1.45;1.33;;;10.70;82.40;;;;;;5014892;28;20037;-78
2023/12/31 00:44:27;;;;;;;1.20;1.10;;;10.70;82.40;;;;;;5014824;28;20025;-80
2023/12/31 00:46:52;;;;;;;1.30;1.20;;;10.70;82.40;;;;;;5022581;28;20500;-80
2023/12/31 00:49:18;;;;;;;1.20;1.10;;;10.70;82.40;;;;;;5024512;28;20065;-79
2023/12/31 00:51:44;;;;;;;1.30;1.20;;;10.70;82.40;;;;;;5042919;28;20042;-79
2023/12/31 00:54:10;;;;;;;1.02;1.02;;;10.70;82.40;;;;;;5011784;28;20037;-79
2023/12/31 00:56:36;;;;;;;1.30;1.20;;;10.70;82.40;;;;;;5030268;28;20052;-79
2023/12/31 00:59:03;;;;;;;1.10;1.10;;;10.70;83.00;;;;;;5016815;28;20029;-80
2023/12/31 01:01:29;;;;;;;1.25;1.15;;;10.70;82.40;;;;;;5008192;28;20424;-80
2023/12/31 01:03:55;;;;;;;1.08;1.08;;;10.70;82.30;;;;;;5024092;28;20132;-80
2023/12/31 01:06:21;;;;;;;2.05;1.20;;;10.70;82.40;;;;;;5028399;28;20052;-80
2023/12/31 01:08:47;;;;;;;1.13;1.05;;;10.70;82.40;;;;;;5010242;28;20037;-80
2023/12/31 01:11:13;;;;;;;1.20;1.10;;;10.70;82.40;;;;;;5016526;28;20130;-79
2023/12/31 01:13:39;;;;;;;1.05;1.02;;;10.70;82.40;;;;;;5033843;28;20563;-80
2023/12/31 01:16:05;;;;;;;1.10;1.10;;;10.70;82.40;;;;;;5040027;28;20053;-80
2023/12/31 01:18:31;;;;;;;1.13;1.10;;;10.70;82.40;;;;;;5021708;28;20083;-80
2023/12/31 01:20:57;;;;;;;1.10;1.00;;;10.70;82.40;;;;;;5023525;28;20029;-80
2023/12/31 01:23:23;;;;;;;1.50;1.20;;;10.70;82.30;;;;;;5014589;28;20021;-79
2023/12/31 01:25:49;;;;;;;1.00;1.00;;;10.70;82.40;;;;;;5034200;28;20037;-81
2023/12/31 01:28:14;;;;;;;1.30;1.20;;;10.70;82.30;;;;;;5026896;28;20040;-80
2023/12/31 01:30:40;;;;;;;1.10;1.10;;;10.70;82.30;;;;;;5009550;28;20457;-79
2023/12/31 01:33:06;;;;;;;1.10;1.10;;;10.70;82.30;;;;;;5033123;28;20024;-79
2023/12/31 01:35:32;;;;;;;1.05;1.05;;;10.70;82.30;;;;;;5009424;28;20033;-80
2023/12/31 01:37:58;;;;;;;1.15;1.10;;;10.70;83.00;;;;;;5008370;28;20124;-80
2023/12/31 01:40:23;;;;;;;1.38;1.10;;;10.70;82.40;;;;;;5026811;28;20121;-79
2023/12/31 01:42:49;;;;;;;1.00;1.00;;;10.70;82.40;;;;;;5029542;28;20082;-79
2023/12/31 01:45:15;;;;;;;1.00;1.00;;;10.70;82.30;;;;;;5006833;28;20032;-79
2023/12/31 01:47:42;;;;;;;1.15;1.08;;;10.70;82.30;;;;;;5010950;28;20028;-80
2023/12/31 01:50:13;;;;;;;1.20;1.10;;;10.70;82.30;;;;;;5025828;28;20034;-80
2023/12/31 01:52:41;;;;;;;1.15;1.10;;;10.70;82.30;;;;;;5027872;28;20033;-81
2023/12/31 01:55:08;;;;;;;1.10;1.10;;;10.80;82.30;;;;;;5028643;28;20049;-80
2023/12/31 01:57:37;;;;;;;1.20;1.10;;;10.70;82.20;;;;;;5031590;28;20033;-79
2023/12/31 02:00:05;;;;;;;1.10;1.10;;;10.80;82.30;;;;;;5023209;28;20057;-79
2023/12/31 02:02:40;;;;;;;1.08;1.08;;;10.70;82.20;;;;;;5040484;28;20029;-80
2023/12/31 02:05:06;;;;;;;1.00;1.00;;;10.80;82.30;;;;;;5021506;28;20120;-79
2023/12/31 02:07:32;;;;;;;1.10;1.10;;;10.70;82.20;;;;;;5039906;28;20452;-80
2023/12/31 02:09:58;;;;;;;1.33;1.10;;;10.70;82.20;;;;;;5027759;28;20043;-80
2023/12/31 02:12:23;;;;;;;1.17;1.08;;;10.80;82.20;;;;;;5031383;28;20366;-80
2023/12/31 02:14:49;;;;;;;1.88;1.10;;;10.80;82.20;;;;;;5021368;28;20061;-80
2023/12/31 02:17:16;;;;;;;1.15;1.10;;;10.80;82.20;;;;;;5047602;28;20056;-79
2023/12/31 02:19:42;;;;;;;1.38;1.20;;;10.80;82.20;;;;;;5015399;28;20520;-81
2023/12/31 02:22:08;;;;;;;1.15;1.10;;;10.80;82.20;;;;;;5034411;28;20044;-79
2023/12/31 02:24:48;;;;;;;1.08;1.08;;;10.80;82.20;;;;;;5043293;28;20123;-80
2023/12/31 02:27:14;;;;;;;1.20;1.10;;;10.80;82.30;;;;;;5026680;28;20013;-79
2023/12/31 02:29:40;;;;;;;1.65;1.30;;;10.80;82.20;;;;;;5026750;28;20040;-80
2023/12/31 02:32:06;;;;;;;1.63;1.20;;;10.80;82.20;;;;;;5022368;28;20460;-80
2023/12/31 02:34:32;;;;;;;1.30;1.20;;;10.80;82.20;;;;;;5044913;28;20063;-80
2023/12/31 02:36:58;;;;;;;1.27;1.17;;;10.80;82.20;;;;;;5032309;28;20400;-80
2023/12/31 02:39:24;;;;;;;1.15;1.10;;;10.80;82.20;;;;;;5043721;28;20407;-79
2023/12/31 02:41:50;;;;;;;1.20;1.10;;;10.80;82.30;;;;;;5008722;28;20036;-80
2023/12/31 02:44:17;;;;;;;1.73;1.40;;;10.80;82.90;;;;;;5031700;28;20425;-79
2023/12/31 02:46:43;;;;;;;1.50;1.40;;;10.80;82.30;;;;;;5012399;28;20025;-80
2023/12/31 02:49:11;;;;;;;1.23;1.13;;;10.80;82.20;;;;;;5027670;28;20025;-80
2023/12/31 02:51:37;;;;;;;1.27;1.20;;;10.80;82.20;;;;;;5027862;28;20038;-80
2023/12/31 02:54:03;;;;;;;1.30;1.20;;;10.80;82.20;;;;;;5012472;28;20033;-80
2023/12/31 02:56:29;;;;;;;1.23;1.13;;;10.80;82.30;;;;;;5023926;28;20065;-80
2023/12/31 02:58:58;;;;;;;1.45;1.35;;;10.80;82.30;;;;;;5028518;28;20075;-80
2023/12/31 03:01:24;;;;;;;1.30;1.20;;;10.80;82.30;;;;;;5039782;28;20051;-80
2023/12/31 03:03:50;;;;;;;1.20;1.20;;;10.80;82.30;;;;;;5042014;28;20033;-80
2023/12/31 03:06:16;;;;;;;1.27;1.20;;;10.80;82.30;;;;;;5030746;28;20082;-82
2023/12/31 03:08:42;;;;;;;1.63;1.30;;;10.80;82.20;;;;;;5014626;28;20039;-80
2023/12/31 03:11:09;;;;;;;1.23;1.13;;;10.80;82.30;;;;;;5009454;28;20091;-79
2023/12/31 03:13:35;;;;;;;1.40;1.30;;;10.80;82.20;;;;;;5012094;28;20128;-80
2023/12/31 03:16:07;;;;;;;1.27;1.17;;;10.80;82.20;;;;;;5025515;28;20112;-80
2023/12/31 03:18:33;;;;;;;2.05;1.30;;;10.80;82.20;;;;;;5020182;28;20082;-79
2023/12/31 03:20:59;;;;;;;1.10;1.10;;;10.80;82.20;;;;;;5026117;28;20033;-80
2023/12/31 03:23:25;;;;;;;1.63;1.30;;;10.80;82.20;;;;;;5019014;28;20026;-79
2023/12/31 03:25:51;;;;;;;1.40;1.30;;;10.80;82.30;;;;;;5000146;28;20815;-82
2023/12/31 03:28:16;;;;;;;1.38;1.27;;;10.80;82.30;;;;;;4998434;28;20044;-80
2023/12/31 03:30:42;;;;;;;1.67;1.55;;;10.80;82.20;;;;;;5001933;28;20446;-80
2023/12/31 03:33:08;;;;;;;1.50;1.40;;;10.80;82.30;;;;;;5020085;28;20029;-80
2023/12/31 03:35:35;;;;;;;1.17;1.15;;;10.80;82.20;;;;;;5040033;28;20381;-80
2023/12/31 03:38:01;;;;;;;1.33;1.23;;;10.80;82.90;;;;;;5028291;28;20029;-79
2023/12/31 03:40:27;;;;;;;2.13;1.30;;;10.80;82.20;;;;;;5028652;28;20836;-81
2023/12/31 03:42:53;;;;;;;1.10;1.10;;;10.80;82.20;;;;;;5043412;28;20052;-80
2023/12/31 03:45:19;;;;;;;1.33;1.23;;;10.80;82.20;;;;;;5030286;28;20116;-80
2023/12/31 03:47:46;;;;;;;1.30;1.25;;;10.80;82.20;;;;;;5042525;28;20533;-80
2023/12/31 03:50:11;;;;;;;1.15;1.15;;;10.80;82.20;;;;;;5030828;28;20035;-80
2023/12/31 03:52:38;;;;;;;1.40;1.30;;;10.80;82.20;;;;;;5020644;28;20036;-79
2023/12/31 03:55:05;;;;;;;1.40;1.30;;;10.80;82.20;;;;;;5007389;28;20107;-80
2023/12/31 03:57:31;;;;;;;1.52;1.25;;;10.80;82.20;;;;;;5041660;28;20029;-80
2023/12/31 03:59:57;;;;;;;1.42;1.25;;;10.80;82.20;;;;;;5023526;28;20124;-80
2023/12/31 04:02:23;;;;;;;1.30;1.20;;;10.80;82.20;;;;;;5029347;28;20477;-79
2023/12/31 04:04:50;;;;;;;1.55;1.40;;;10.80;82.20;;;;;;5001869;28;20026;-80
2023/12/31 04:07:16;;;;;;;1.20;1.15;;;10.80;82.20;;;;;;4998970;28;20083;-80
2023/12/31 04:09:42;;;;;;;1.65;1.50;;;10.80;82.20;;;;;;5041075;28;20037;-80
2023/12/31 04:12:08;;;;;;;1.48;1.38;;;10.80;82.20;;;;;;5011102;28;20061;-80
2023/12/31 04:14:34;;;;;;;1.60;1.50;;;10.80;82.10;;;;;;5023334;28;20436;-80
2023/12/31 04:17:00;;;;;;;3.75;1.85;;;10.80;82.20;;;;;;5002123;28;20029;-80
2023/12/31 04:19:26;;;;;;;3.40;1.83;;;10.80;82.20;;;;;;5028258;28;20481;-80
2023/12/31 04:21:52;;;;;;;4.50;2.05;;;10.80;82.20;;;;;;5034642;28;20036;-80
2023/12/31 04:24:17;;;;;;;4.13;2.42;;;10.80;82.10;;;;;;5048412;28;20032;-79
2023/12/31 04:26:44;;;;;;;3.95;2.50;;;10.80;82.10;;;;;;5016028;28;20025;-81
2023/12/31 04:29:11;;;;;;;5.10;2.60;;;10.80;82.10;;;;;;5033513;28;20037;-80
2023/12/31 04:31:47;;;;;;;4.82;3.00;;;10.80;82.10;;;;;;5001596;28;20393;-79
2023/12/31 04:34:14;;;;;;;7.65;3.33;;;10.80;82.20;;;;;;5046351;28;20689;-80
2023/12/31 04:36:43;;;;;;;6.82;3.88;;;10.80;82.10;;;;;;5047415;28;20496;-80
2023/12/31 04:39:11;;;;;;;5.18;3.25;;;10.80;82.20;;;;;;5031205;28;20045;-79
2023/12/31 04:41:37;;;;;;;5.38;3.25;;;10.80;82.10;;;;;;5029646;28;20025;-81
2023/12/31 04:44:03;;;;;;;6.85;3.22;;;10.80;82.10;;;;;;5030940;28;20528;-80
2023/12/31 04:46:29;;;;;;;5.57;3.38;;;10.80;82.20;;;;;;5034588;28;20029;-79
2023/12/31 04:48:55;;;;;;;5.10;3.22;;;10.80;82.10;;;;;;5031148;28;20466;-80
2023/12/31 04:51:24;;;;;;;4.53;2.83;;;10.80;82.10;;;;;;5046322;28;20034;-79
2023/12/31 04:53:50;;;;;;;3.55;2.75;;;10.80;82.80;;;;;;5027661;28;20052;-79
2023/12/31 04:56:20;;;;;;;4.88;2.72;;;10.80;82.10;;;;;;5032440;28;20080;-80
2023/12/31 04:58:51;;;;;;;5.07;3.03;;;10.80;82.20;;;;;;5042934;28;20033;-80
2023/12/31 05:01:17;;;;;;;5.82;3.08;;;10.80;82.10;;;;;;5047779;28;20048;-80
2023/12/31 05:03:47;;;;;;;5.65;3.08;;;10.80;82.10;;;;;;5025815;28;20030;-80
2023/12/31 05:06:14;;;;;;;4.65;2.50;;;10.80;82.10;;;;;;5013874;28;20029;-79
2023/12/31 05:08:44;;;;;;;5.10;2.60;;;10.80;82.20;;;;;;5020972;28;20542;-79
2023/12/31 05:11:10;;;;;;;4.22;2.47;;;10.80;82.20;;;;;;5040362;28;20037;-80
2023/12/31 05:13:38;;;;;;;4.47;2.45;;;10.80;82.10;;;;;;5012972;28;20052;-80
2023/12/31 05:16:04;;;;;;;3.88;2.25;;;10.80;82.10;;;;;;5044535;28;20025;-80
2023/12/31 05:18:30;;;;;;;4.72;2.65;;;10.80;82.10;;;;;;5042624;28;20033;-80
2023/12/31 05:20:55;;;;;;;4.32;2.28;;;10.80;82.10;;;;;;5027954;28;20514;-80
2023/12/31 05:23:21;;;;;;;4.15;2.50;;;10.80;82.20;;;;;;5030913;28;20041;-80
2023/12/31 05:25:49;;;;;;;4.75;2.40;;;10.80;82.10;;;;;;5015038;28;20025;-79
2023/12/31 05:28:15;;;;;;;3.72;2.53;;;10.80;82.20;;;;;;5007356;28;20025;-80
2023/12/31 05:30:42;;;;;;;3.70;2.33;;;10.80;82.10;;;;;;5034920;28;20033;-80
2023/12/31 05:33:10;;;;;;;5.30;3.05;;;10.80;82.10;;;;;;5048934;28;20041;-80
2023/12/31 05:35:36;;;;;;;4.90;2.40;;;10.80;82.20;;;;;;5039948;28;20030;-79
2023/12/31 05:38:02;;;;;;;3.92;2.33;;;10.80;82.20;;;;;;5031500;28;20035;-80
2023/12/31 05:40:29;;;;;;;4.95;3.05;;;10.80;82.20;;;;;;5008980;28;20041;-81
2023/12/31 05:42:54;;;;;;;5.50;3.05;;;10.80;82.20;;;;;;5029177;28;20040;-80
2023/12/31 05:45:20;;;;;;;4.63;2.85;;;10.80;82.20;;;;;;5027707;28;20121;-80
2023/12/31 05:47:46;;;;;;;6.22;3.53;;;10.70;82.20;;;;;;5031193;28;20029;-80
2023/12/31 05:50:15;;;;;;;6.18;3.72;;;10.80;82.20;;;;;;5015980;28;20035;-80
2023/12/31 05:52:42;;;;;;;5.53;3.38;;;10.80;82.20;;;;;;5047299;28;20041;-79
2023/12/31 05:55:09;;;;;;;5.88;3.60;;;10.80;82.20;;;;;;5009821;28;20036;-79
2023/12/31 05:57:35;;;;;;;6.80;3.80;;;10.80;82.20;;;;;;5002842;28;20026;-80
2023/12/31 06:00:02;;;;;;;6.25;3.53;;;10.80;82.10;;;;;;5023927;28;20029;-80
2023/12/31 06:02:38;;;;;;;5.05;3.38;;;10.80;82.10;;;;;;5039660;28;20108;-80
2023/12/31 06:05:04;;;;;;;6.05;3.05;;;10.80;82.10;;;;;;5042454;28;20027;-79
2023/12/31 06:07:29;;;;;;;5.22;3.60;;;10.80;82.10;;;;;;5027622;28;20017;-80
2023/12/31 06:09:55;;;;;;;6.78;3.75;;;10.80;82.10;;;;;;5014013;28;20389;-78
2023/12/31 06:12:21;;;;;;;4.78;3.42;;;10.80;82.10;;;;;;5020750;28;20029;-79
2023/12/31 06:14:47;;;;;;;6.78;3.78;;;10.80;82.10;;;;;;5009904;28;20172;-78
2023/12/31 06:17:13;;;;;;;7.45;3.97;;;10.80;82.10;;;;;;5008307;28;20041;-78
2023/12/31 06:19:40;;;;;;;5.60;3.33;;;10.80;82.20;;;;;;5041749;28;20441;-79
2023/12/31 06:22:06;;;;;;;4.78;3.33;;;10.80;82.10;;;;;;5007699;28;20051;-79
2023/12/31 06:24:31;;;;;;;6.20;4.03;;;10.80;82.10;;;;;;5017794;28;20025;-78
2023/12/31 06:26:57;;;;;;;5.68;3.70;;;10.80;82.10;;;;;;5025515;28;20029;-79
2023/12/31 06:29:23;;;;;;;5.78;3.30;;;10.80;82.10;;;;;;5038896;28;20064;-79
2023/12/31 06:31:49;;;;;;;5.43;3.40;;;10.80;82.10;;;;;;5027026;28;20128;-79
2023/12/31 06:34:14;;;;;;;6.20;3.47;;;10.80;82.10;;;;;;5026698;28;20049;-78
2023/12/31 06:36:40;;;;;;;5.70;3.35;;;10.80;82.10;;;;;;5012567;28;20440;-79
2023/12/31 06:39:10;;;;;;;5.80;3.50;;;10.80;82.10;;;;;;5041048;28;20039;-78
2023/12/31 06:41:36;;;;;;;5.18;3.08;;;10.80;82.10;;;;;;5033246;28;20525;-79
2023/12/31 06:44:02;;;;;;;5.00;3.20;;;10.80;82.10;;;;;;5026552;28;20037;-79
2023/12/31 06:46:27;;;;;;;5.13;3.30;;;10.80;82.10;;;;;;5025509;28;20029;-79
2023/12/31 06:48:56;;;;;;;5.45;3.00;;;10.80;82.10;;;;;;5011797;28;20056;-80
2023/12/31 06:51:21;;;;;;;4.70;3.05;;;10.80;82.10;;;;;;5046444;28;20037;-78
2023/12/31 06:53:47;;;;;;;3.88;2.83;;;10.80;82.10;;;;;;5031871;28;20061;-80
2023/12/31 06:56:13;;;;;;;4.53;2.95;;;10.90;82.10;;;;;;5012356;28;20045;-79
2023/12/31 06:58:38;;;;;;;4.28;3.00;;;10.80;82.10;;;;;;4992818;28;20470;-79
2023/12/31 07:01:05;;;;;;;4.10;2.80;;;10.80;82.10;;;;;;5018447;28;20110;-79
2023/12/31 07:03:31;;;;;;;3.88;2.75;;;10.80;82.10;;;;;;5030522;28;20041;-79
2023/12/31 07:05:57;;;;;;;4.07;2.63;;;10.80;82.30;;;;;;5039182;28;20036;-79
2023/12/31 07:08:23;;;;;;;3.42;2.58;;;10.80;82.10;;;;;;5027742;28;20056;-78
2023/12/31 07:10:52;;;;;;;4.40;2.67;;;10.90;82.20;;;;;;5008003;28;20045;-79
2023/12/31 07:13:19;;;;;;;3.88;2.60;;;10.80;82.10;;;;;;5030754;28;20029;-79
2023/12/31 07:15:45;;;;;;;3.15;2.30;;;10.90;82.20;;;;;;5028499;28;20034;-80
2023/12/31 07:18:10;;;;;;;3.45;2.35;;;10.80;82.10;;;;;;5027966;28;20389;-78
2023/12/31 07:20:37;;;;;;;4.65;2.67;;;10.80;82.10;;;;;;5024133;28;20025;-79
2023/12/31 07:23:03;;;;;;;3.13;2.30;;;10.80;82.10;;;;;;5023653;28;20068;-79
2023/12/31 07:25:30;;;;;;;3.55;2.60;;;10.80;82.10;;;;;;5005269;28;20031;-79
2023/12/31 07:27:56;;;;;;;2.78;2.17;;;10.80;82.10;;;;;;5021872;28;20060;-79
2023/12/31 07:30:22;;;;;;;3.55;2.53;;;10.80;82.10;;;;;;5039468;28;20126;-78
2023/12/31 07:32:48;;;;;;;3.10;2.25;;;10.90;82.20;;;;;;5032403;28;20037;-79
2023/12/31 07:35:14;;;;;;;3.65;2.22;;;10.80;82.10;;;;;;5009934;28;20021;-78
2023/12/31 07:37:40;;;;;;;2.70;2.25;;;10.80;82.10;;;;;;5024008;28;20164;-79
2023/12/31 07:40:07;;;;;;;3.63;2.30;;;10.80;82.10;;;;;;5029611;28;20120;-80
2023/12/31 07:42:35;;;;;;;2.53;2.05;;;10.90;82.20;;;;;;5032153;28;20021;-79
2023/12/31 07:45:07;;;;;;;2.80;2.30;;;10.90;82.20;;;;;;5030417;28;20028;-80
2023/12/31 07:47:38;;;;;;;3.05;2.28;;;10.90;82.20;;;;;;5031600;28;20025;-79
2023/12/31 07:50:07;;;;;;;3.05;2.17;;;10.90;82.10;;;;;;4990338;28;20033;-79
2023/12/31 07:52:33;;;;;;;2.72;2.13;;;10.90;82.10;;;;;;5029736;28;20482;-79
2023/12/31 07:55:00;;;;;;;2.85;2.22;;;10.90;82.10;;;;;;5008573;28;20040;-79
2023/12/31 07:57:26;;;;;;;3.25;2.30;;;10.90;82.20;;;;;;5017583;28;20041;-79
2023/12/31 07:59:52;;;;;;;2.97;2.20;;;10.90;82.20;;;;;;5043045;28;20370;-80
2023/12/31 08:02:17;;;;;;;2.70;1.92;;;10.90;82.20;;;;;;5029808;28;20103;-80
2023/12/31 08:04:43;;;;;;;2.92;2.20;;;10.90;82.10;;;;;;4989570;28;20053;-78
2023/12/31 08:07:09;;;;;;;4.63;2.50;;;10.90;82.10;;;;;;5040538;28;20025;-79
2023/12/31 08:09:35;;;;;;;2.83;2.03;;;10.90;82.10;;;;;;5011903;28;20393;-79
2023/12/31 08:12:01;;;;;;;3.40;2.22;;;10.90;82.10;;;;;;5028721;28;20179;-80
2023/12/31 08:14:26;;;;;;;2.85;2.28;;;10.90;82.10;;;;;;5027950;28;20553;-80
2023/12/31 08:16:52;;;;;;;3.40;2.35;;;10.90;82.10;;;;;;4996693;28;20039;-80
2023/12/31 08:19:18;;;;;;;3.80;2.50;;;10.90;82.10;;;;;;5031343;28;20478;-79
2023/12/31 08:21:45;;;;;;;4.38;2.58;;;10.90;82.10;;;;;;5043637;28;20382;-80
2023/12/31 08:24:11;;;;;;;4.32;2.97;;;10.90;82.10;;;;;;5025748;28;20025;-79
2023/12/31 08:26:38;;;;;;;4.40;3.03;;;10.90;82.10;;;;;;5019864;28;20436;-80
2023/12/31 08:29:04;;;;;;;4.75;3.00;;;10.90;82.10;;;;;;5025929;28;20030;-80
2023/12/31 08:31:31;;;;;;;4.80;3.10;;;10.90;82.10;;;;;;5034157;28;20029;-81
2023/12/31 08:33:57;;;;;;;5.35;3.28;;;10.90;82.10;;;;;;5013621;28;20025;-79
2023/12/31 08:36:23;;;;;;;5.10;3.25;;;10.90;82.10;;;;;;5026118;28;20025;-79
2023/12/31 08:38:48;;;;;;;5.80;3.75;;;11.00;82.10;;;;;;5011729;28;20091;-80
2023/12/31 08:41:14;;;;;;;5.43;3.25;;;11.00;82.10;;;;;;4995592;28;20021;-80
2023/12/31 08:43:40;;;;;;;4.82;3.15;;;11.00;82.10;;;;;;5033470;28;20409;-79
2023/12/31 08:46:07;;;;;;;4.72;3.28;;;11.00;82.10;;;;;;4998852;28;20116;-79
2023/12/31 08:48:32;;;;;;;4.63;3.30;;;11.00;82.10;;;;;;5009018;28;20040;-79
2023/12/31 08:50:58;;;;;;;5.13;3.20;;;11.00;82.10;;;;;;5017807;28;20037;-80
2023/12/31 08:53:24;;;;;;;4.22;3.15;;;11.00;82.10;;;;;;5014791;28;20424;-79
2023/12/31 08:55:51;;;;;;;3.72;2.65;;;11.00;82.10;;;;;;5014536;28;20044;-79
2023/12/31 08:58:18;;;;;;;4.18;2.88;;;11.00;82.10;;;;;;5033321;28;20034;-80
2023/12/31 09:00:43;;;;;;;4.53;2.80;;;11.00;82.00;;;;;;5007913;28;20033;-79
2023/12/31 09:03:10;;;;;;;3.92;2.63;;;11.00;82.10;;;;;;5029881;28;20036;-79
2023/12/31 09:05:36;;;;;;;5.05;2.72;;;11.00;82.00;;;;;;5024765;28;21484;-79
2023/12/31 09:08:05;;;;;;;3.75;2.45;;;11.10;82.10;;;;;;5046630;28;20096;-79
2023/12/31 09:10:31;;;;;;;2.75;2.47;;;11.00;82.00;;;;;;5008458;28;20472;-79
2023/12/31 09:12:56;;;;;;;3.28;2.47;;;11.10;82.10;;;;;;5047070;28;20028;-79
2023/12/31 09:15:23;;;;;;;3.60;2.53;;;11.10;82.10;;;;;;5010533;28;20025;-80
2023/12/31 09:17:49;;;;;;;4.10;2.88;;;11.10;82.10;;;;;;5047934;28;20075;-80
2023/12/31 09:20:15;;;;;;;3.75;2.53;;;11.10;82.10;;;;;;5012561;28;20033;-79
2023/12/31 09:22:41;;;;;;;4.05;2.60;;;11.10;82.10;;;;;;5046554;28;20033;-79
2023/12/31 09:25:08;;;;;;;3.90;2.53;;;11.10;82.10;;;;;;5015427;28;20025;-79
2023/12/31 09:27:34;;;;;;;3.42;2.35;;;11.10;82.10;;;;;;5030433;28;20120;-79
2023/12/31 09:30:03;;;;;;;4.10;2.88;;;11.10;82.10;;;;;;5032516;28;20029;-79
2023/12/31 09:32:29;;;;;;;5.05;2.38;;;11.10;82.10;;;;;;5042389;28;20030;-79
2023/12/31 09:34:55;;;;;;;3.58;2.45;;;11.10;82.00;;;;;;5028601;28;20029;-79
2023/12/31 09:37:21;;;;;;;3.33;2.40;;;11.10;82.10;;;;;;5029656;28;20025;-79
2023/12/31 09:39:47;;;;;;;3.15;2.25;;;11.20;82.10;;;;;;4995803;28;20405;-79
2023/12/31 09:42:18;;;;;;;3.17;2.53;;;11.20;82.10;;;;;;5016412;28;20131;-81
2023/12/31 09:44:44;;;;;;;3.50;2.53;;;11.20;82.10;;;;;;5030012;28;20029;-79
2023/12/31 09:47:11;;;;;;;3.63;2.47;;;11.20;82.10;;;;;;5032353;28;20548;-79
2023/12/31 09:49:39;;;;;;;3.45;2.60;;;11.20;82.10;;;;;;5009497;28;20038;-79
2023/12/31 09:52:09;;;;;;;3.78;2.70;;;11.20;82.10;;;;;;5009718;28;20068;-79
2023/12/31 09:54:40;;;;;;;3.90;2.35;;;11.20;82.10;;;;;;5009691;28;20041;-80
2023/12/31 09:57:07;;;;;;;2.92;2.25;;;11.20;82.10;;;;;;5015873;28;20103;-80
2023/12/31 09:59:33;;;;;;;4.07;2.60;;;11.20;82.10;;;;;;5030664;28;20478;-80
2023/12/31 10:02:03;;;;;;;3.80;2.28;;;11.20;82.10;;;;;;5040837;28;20021;-80
2023/12/31 10:04:30;;;;;;;2.88;2.28;;;11.30;82.10;;;;;;5038583;28;20090;-80
2023/12/31 10:06:57;;;;;;;3.47;2.30;;;11.30;82.10;;;;;;5042994;28;20025;-80
2023/12/31 10:09:27;;;;;;;3.15;2.30;;;11.30;82.10;;;;;;5030776;28;20026;-80
2023/12/31 10:11:54;;;;;;;3.08;2.33;;;11.30;82.10;;;;;;5011192;28;20033;-80
2023/12/31 10:14:21;;;;;;;3.30;2.20;;;11.30;82.10;;;;;;5039553;28;20024;-79
2023/12/31 10:16:47;;;;;;;2.85;2.15;;;11.30;82.10;;;;;;5024514;28;20025;-79
2023/12/31 10:19:14;;;;;;;3.08;2.40;;;11.30;82.00;;;;;;5046909;28;20048;-79
2023/12/31 10:21:42;;;;;;;3.22;2.10;;;11.30;82.00;;;;;;5047693;28;20029;-77
2023/12/31 10:24:08;;;;;;;3.13;2.10;;;11.40;82.10;;;;;;5022337;28;20037;-81
2023/12/31 10:26:34;;;;;;;2.35;1.88;;;11.40;82.10;;;;;;5028020;28;20033;-79
2023/12/31 10:29:04;;;;;;;2.70;2.22;;;11.40;82.10;;;;;;5018972;28;20082;-81
2023/12/31 10:31:32;;;;;;;2.90;2.05;;;11.40;82.00;;;;;;5008412;28;20098;-80
2023/12/31 10:34:17;;;;;;;2.30;1.80;;;11.40;82.10;;;;;;5026971;28;20025;-78
2023/12/31 10:36:45;;;;;;;2.00;1.80;;;11.40;82.10;;;;;;5018110;28;20029;-80
2023/12/31 10:39:28;;;;;;;1.85;1.70;;;11.40;82.00;;;;;;5028327;28;20036;-80
2023/12/31 10:41:59;;;;;;;2.10;1.80;;;11.40;82.00;;;;;;5027553;28;20040;-79
2023/12/31 10:44:26;;;;;;;1.65;1.50;;;11.40;82.00;;;;;;5045331;28;20032;-79
2023/12/31 10:47:15;;;;;;;2.40;1.83;;;11.40;81.90;;;;;;5045269;28;20458;-79
2023/12/31 10:49:46;;;;;;;2.33;1.80;;;11.50;82.10;;;;;;5024519;28;20068;-78
2023/12/31 10:52:14;;;;;;;2.38;1.70;;;11.50;82.00;;;;;;5043165;28;20037;-79
2023/12/31 10:54:51;;;;;;;1.50;1.40;;;11.50;82.00;;;;;;5032781;28;20185;-79
2023/12/31 10:57:19;;;;;;;2.05;1.60;;;11.50;82.10;;;;;;5038324;28;20064;-79
2023/12/31 10:59:48;;;;;;;2.80;1.70;;;11.50;82.00;;;;;;5030634;28;20064;-80
2023/12/31 11:02:20;;;;;;;1.60;1.50;;;11.50;82.00;;;;;;5002893;28;20080;-79
2023/12/31 11:04:48;;;;;;;2.08;1.65;;;11.60;82.10;;;;;;5039169;28;20021;-79
2023/12/31 11:07:15;;;;;;;1.88;1.52;;;11.60;82.10;;;;;;5020659;28;20057;-79
2023/12/31 11:09:43;;;;;;;1.98;1.63;;;11.60;82.10;;;;;;5026517;28;20112;-80
2023/12/31 11:12:09;;;;;;;1.65;1.40;;;11.60;82.00;;;;;;5024056;28;20055;-79
2023/12/31 11:14:37;;;;;;;1.60;1.48;;;11.60;82.10;;;;;;4990560;28;20037;-80
2023/12/31 11:17:12;;;;;;;3.53;1.50;;;11.60;82.00;;;;;;5005753;28;20079;-80
2023/12/31 11:19:54;;;;;;;1.70;1.60;;;11.60;82.40;;;;;;5021815;28;20064;-80
2023/12/31 11:22:28;;;;;;;1.60;1.50;;;11.60;82.00;;;;;;5048939;28;20029;-81
2023/12/31 11:24:55;;;;;;;1.58;1.48;;;11.70;82.10;;;;;;5045665;28;20025;-78
2023/12/31 11:27:21;;;;;;;1.60;1.50;;;11.60;82.00;;;;;;5024645;28;20033;-79
2023/12/31 11:29:52;;;;;;;1.80;1.50;;;11.70;82.00;;;;;;5027713;28;20048;-78
2023/12/31 11:32:19;;;;;;;1.83;1.58;;;11.70;82.10;;;;;;5012938;28;20497;-80
2023/12/31 11:34:51;;;;;;;4.00;1.50;;;11.70;82.10;;;;;;5027270;28;20074;-79
2023/12/31 11:37:17;;;;;;;1.30;1.20;;;11.70;82.10;;;;;;5028812;28;20040;-79
2023/12/31 11:39:53;;;;;;;1.45;1.30;;;11.70;82.00;;;;;;5026476;28;20029;-79
2023/12/31 11:42:21;;;;;;;1.50;1.40;;;11.80;82.10;;;;;;5014836;28;20049;-80
2023/12/31 11:44:47;;;;;;;1.45;1.35;;;11.80;82.00;;;;;;5031778;28;20044;-79
2023/12/31 11:47:21;;;;;;;1.52;1.42;;;11.80;82.00;;;;;;5035713;28;20384;-79
2023/12/31 11:49:54;;;;;;;1.93;1.60;;;11.80;82.00;;;;;;5048553;28;20047;-80
2023/12/31 11:52:21;;;;;;;1.48;1.38;;;11.80;81.90;;;;;;5040321;28;20705;-81
2023/12/31 11:54:50;;;;;;;1.63;1.40;;;11.80;81.90;;;;;;5030423;28;20119;-79
2023/12/31 11:57:19;;;;;;;1.30;1.20;;;11.80;81.90;;;;;;5019907;28;20069;-78
2023/12/31 11:59:45;;;;;;;1.40;1.30;;;11.80;82.00;;;;;;5038602;28;20040;-78
2023/12/31 12:02:11;;;;;;;1.35;1.25;;;11.90;82.00;;;;;;5029049;28;20025;-79
2023/12/31 12:04:37;;;;;;;1.30;1.20;;;11.90;81.90;;;;;;5019576;28;20034;-79
2023/12/31 12:07:03;;;;;;;1.70;1.30;;;11.90;81.90;;;;;;5018216;28;20107;-81
2023/12/31 12:09:36;;;;;;;2.20;1.20;;;11.90;81.90;;;;;;5003861;28;20072;-81
2023/12/31 12:12:07;;;;;;;1.40;1.30;;;11.90;81.90;;;;;;5038587;28;20032;-82
2023/12/31 12:14:34;;;;;;;1.88;1.33;;;11.90;81.90;;;;;;5005255;28;20458;-81
2023/12/31 12:17:02;;;;;;;1.40;1.30;;;11.90;81.90;;;;;;5040602;28;20044;-79
2023/12/31 12:19:33;;;;;;;1.30;1.20;;;11.90;81.90;;;;;;5026152;28;20040;-78
2023/12/31 12:22:00;;;;;;;1.65;1.30;;;11.90;81.90;;;;;;5028187;28;20072;-81
2023/12/31 12:24:27;;;;;;;1.10;1.10;;;11.90;81.90;;;;;;5023230;28;20033;-80
2023/12/31 12:26:53;;;;;;;1.05;1.00;;;12.00;81.90;;;;;;5027186;28;20021;-80
2023/12/31 12:29:20;;;;;;;1.30;1.20;;;12.00;81.90;;;;;;5037019;28;20128;-79
2023/12/31 12:31:48;;;;;;;1.45;1.27;;;12.00;81.90;;;;;;4994120;28;20037;-80
2023/12/31 12:34:23;;;;;;;1.30;1.20;;;12.00;81.90;;;;;;5040398;28;20021;-80
2023/12/31 12:36:52;;;;;;;1.55;1.20;;;12.00;81.90;;;;;;5021651;28;20064;-79
2023/12/31 12:39:22;;;;;;;1.35;1.20;;;12.00;81.90;;;;;;5027453;28;20063;-81
2023/12/31 12:41:50;;;;;;;1.10;1.00;;;12.00;82.50;;;;;;5022904;28;20045;-79
2023/12/31 12:44:17;;;;;;;1.13;1.02;;;12.00;81.90;;;;;;5039658;28;20037;-80
2023/12/31 12:46:45;;;;;;;1.30;1.20;;;12.00;81.80;;;;;;5020397;28;20873;-79